Terminal Aerodrome Forecast
Issued by NWS Charleston, WV

Current Version | Previous Version | Graphics & Text | Print | Product List | Glossary On
Versions: 1 2 3 4 5 6 7 8 9 10 11 12 13 14 15 16 17 18 19 20 21 22 23 24 25 26 27 28 29 30
529
FTUS41 KRLX 121543 AAB
TAFEKN
TAF AMD
KEKN 121543Z 1216/1312 27012G24KT 4SM -SHSN BKN015
      TEMPO 1216/1220 1SM -SN BKN008
     FM130300 29013G27KT 3SM -SHSN OVC025
     FM130800 28015G27KT P6SM BKN030=

USA.gov is the U.S. government's official web portal to all federal, state and local government web resources and services.